createdAt,value
2022-12-08T00:01:26.705Z,2.70
2022-12-08T00:03:55.417Z,2.70
2022-12-08T00:06:59.439Z,2.60
2022-12-08T00:09:39.018Z,2.60
2022-12-08T00:12:16.639Z,2.60
2022-12-08T00:14:46.433Z,2.50
2022-12-08T00:17:16.095Z,2.50
2022-12-08T00:19:44.292Z,2.50
2022-12-08T00:22:15.331Z,2.60
2022-12-08T00:24:45.668Z,2.50
2022-12-08T00:27:15.709Z,2.50
2022-12-08T00:29:46.277Z,2.50
2022-12-08T00:32:13.985Z,2.50
2022-12-08T00:34:41.386Z,2.50
2022-12-08T00:37:08.666Z,2.40
2022-12-08T00:39:35.918Z,2.50
2022-12-08T00:42:12.068Z,2.50
2022-12-08T00:44:43.553Z,2.50
2022-12-08T00:47:11.864Z,2.50
2022-12-08T00:49:39.217Z,2.50
2022-12-08T00:52:07.331Z,2.50
2022-12-08T00:54:34.838Z,2.50
2022-12-08T00:57:02.074Z,2.50
2022-12-08T00:59:29.360Z,2.50
2022-12-08T01:01:56.601Z,2.50
2022-12-08T01:04:24.649Z,2.50
2022-12-08T01:06:52.979Z,2.50
2022-12-08T01:09:20.262Z,2.50
2022-12-08T01:11:47.772Z,2.40
2022-12-08T01:14:15.595Z,2.40
2022-12-08T01:16:43.565Z,2.30
2022-12-08T01:19:13.062Z,2.20
2022-12-08T01:21:41.505Z,2.20
2022-12-08T01:24:12.524Z,2.10
2022-12-08T01:26:40.142Z,2.10
2022-12-08T01:29:07.576Z,2.00
2022-12-08T01:31:35.043Z,2.00
2022-12-08T01:34:02.494Z,1.90
2022-12-08T01:36:32.283Z,1.90
2022-12-08T01:39:02.245Z,1.90
2022-12-08T01:41:32.206Z,1.90
2022-12-08T01:44:04.563Z,1.90
2022-12-08T01:46:33.844Z,1.80
2022-12-08T01:49:26.811Z,1.80
2022-12-08T01:52:13.375Z,1.80
2022-12-08T01:54:47.544Z,1.80
2022-12-08T01:57:20.622Z,1.80
2022-12-08T01:59:53.509Z,1.70
2022-12-08T02:02:21.016Z,1.70
2022-12-08T02:04:48.314Z,1.70
2022-12-08T02:07:17.941Z,1.60
2022-12-08T02:09:46.396Z,1.60
2022-12-08T02:12:13.963Z,1.60
2022-12-08T02:14:41.296Z,1.60
2022-12-08T02:17:48.643Z,1.60
2022-12-08T02:20:41.456Z,1.50
2022-12-08T02:23:33.721Z,1.50
2022-12-08T02:26:14.141Z,1.40
2022-12-08T02:29:15.529Z,1.40
2022-12-08T02:31:45.962Z,1.40
2022-12-08T02:34:25.111Z,1.40
2022-12-08T02:37:16.982Z,1.30
2022-12-08T02:40:00.182Z,1.40
2022-12-08T02:42:37.394Z,1.30
2022-12-08T02:45:19.559Z,1.30
2022-12-08T02:47:47.393Z,1.20
2022-12-08T02:50:15.742Z,1.20
2022-12-08T02:52:47.901Z,1.20
2022-12-08T02:55:28.052Z,1.20
2022-12-08T02:58:13.242Z,1.20
2022-12-08T03:01:19.102Z,1.20
2022-12-08T03:04:10.134Z,1.10
2022-12-08T03:06:55.986Z,1.10
2022-12-08T03:09:29.302Z,1.10
2022-12-08T03:12:04.092Z,1.00
2022-12-08T03:14:34.070Z,1.10
2022-12-08T03:17:01.917Z,1.20
2022-12-08T03:19:34.520Z,1.30
2022-12-08T03:22:04.998Z,1.40
2022-12-08T03:24:41.319Z,1.50
2022-12-08T03:27:12.511Z,1.60
2022-12-08T03:29:40.045Z,1.70
2022-12-08T03:32:33.483Z,1.80
2022-12-08T03:35:04.647Z,1.90
2022-12-08T03:37:34.442Z,1.90
2022-12-08T03:40:02.159Z,1.90
2022-12-08T03:42:30.220Z,2.00
2022-12-08T03:44:57.464Z,1.90
2022-12-08T03:47:24.704Z,2.00
2022-12-08T03:49:51.934Z,2.00
2022-12-08T03:52:19.167Z,2.00
2022-12-08T03:54:46.632Z,2.00
2022-12-08T03:57:14.231Z,2.00
2022-12-08T03:59:41.506Z,2.00
2022-12-08T04:02:08.752Z,2.00
2022-12-08T04:04:36.118Z,2.00
2022-12-08T04:07:03.391Z,1.90
2022-12-08T04:09:30.742Z,1.90
2022-12-08T04:11:57.967Z,1.90
2022-12-08T04:14:25.323Z,1.80
2022-12-08T04:16:52.589Z,1.80
2022-12-08T04:19:19.906Z,1.80
2022-12-08T04:21:47.143Z,1.80
2022-12-08T04:24:14.419Z,1.80
2022-12-08T04:26:41.855Z,1.80
2022-12-08T04:29:09.188Z,1.80
2022-12-08T04:31:36.473Z,1.80
2022-12-08T04:34:03.831Z,1.70
2022-12-08T04:36:31.045Z,1.70
2022-12-08T04:38:58.357Z,1.60
2022-12-08T04:41:25.558Z,1.60
2022-12-08T04:43:52.892Z,1.50
2022-12-08T04:46:20.167Z,1.50
2022-12-08T04:48:47.485Z,1.50
2022-12-08T04:51:17.498Z,1.50
2022-12-08T04:53:46.896Z,1.50
2022-12-08T04:56:16.628Z,1.50
2022-12-08T04:58:44.085Z,1.60
2022-12-08T05:01:11.804Z,1.60
2022-12-08T05:03:39.195Z,1.60
2022-12-08T05:06:07.092Z,1.70
2022-12-08T05:08:34.423Z,1.70
2022-12-08T05:11:06.673Z,1.70
2022-12-08T05:13:33.995Z,1.70
2022-12-08T05:16:06.364Z,1.70
2022-12-08T05:18:34.723Z,1.70
2022-12-08T05:21:02.152Z,1.70
2022-12-08T05:23:29.658Z,1.60
2022-12-08T05:25:57.060Z,1.70
2022-12-08T05:28:41.801Z,1.60
2022-12-08T05:31:11.024Z,1.70
2022-12-08T05:33:38.462Z,1.70
2022-12-08T05:36:06.112Z,1.70
2022-12-08T05:38:33.490Z,1.70
2022-12-08T05:41:00.894Z,1.70
2022-12-08T05:43:28.204Z,1.70
2022-12-08T05:45:55.557Z,1.70
2022-12-08T05:48:22.844Z,1.70
2022-12-08T05:50:51.038Z,1.70
2022-12-08T05:53:20.233Z,1.70
2022-12-08T05:55:47.602Z,1.70
2022-12-08T05:58:18.019Z,1.70
2022-12-08T06:00:46.710Z,1.70
2022-12-08T06:03:15.694Z,1.70
2022-12-08T06:05:44.455Z,1.70
2022-12-08T06:08:12.553Z,1.70
2022-12-08T06:10:41.689Z,1.80
2022-12-08T06:13:09.232Z,1.70
2022-12-08T06:15:37.717Z,1.80
2022-12-08T06:18:05.687Z,1.70
2022-12-08T06:20:33.088Z,1.70
2022-12-08T06:23:00.431Z,1.70
2022-12-08T06:25:27.858Z,1.70
2022-12-08T06:27:55.038Z,1.80
2022-12-08T06:30:22.462Z,1.80
2022-12-08T06:32:49.724Z,1.80
2022-12-08T06:35:17.133Z,1.80
2022-12-08T06:37:44.331Z,1.80
2022-12-08T06:40:12.475Z,1.80
2022-12-08T06:42:46.838Z,1.80
2022-12-08T06:45:18.527Z,1.80
2022-12-08T06:47:45.918Z,1.70
2022-12-08T06:50:14.364Z,1.70
2022-12-08T06:52:54.146Z,1.70
2022-12-08T06:55:57.278Z,1.70
2022-12-08T06:58:14.051Z,1.70
2022-12-08T07:00:41.883Z,1.80
2022-12-08T07:03:10.667Z,1.80
2022-12-08T07:05:38.918Z,1.70
2022-12-08T07:08:08.566Z,1.70
2022-12-08T07:10:36.188Z,1.80
2022-12-08T07:13:07.637Z,1.80
2022-12-08T07:15:41.078Z,1.80
2022-12-08T07:18:08.372Z,1.80
2022-12-08T07:20:35.664Z,1.80
2022-12-08T07:23:03.023Z,1.80
2022-12-08T07:25:30.301Z,1.80
2022-12-08T07:27:57.641Z,1.80
2022-12-08T07:30:25.218Z,1.80
2022-12-08T07:32:53.031Z,1.90
2022-12-08T07:35:21.159Z,1.90
2022-12-08T07:37:49.738Z,1.90
2022-12-08T07:40:17.576Z,1.90
2022-12-08T07:42:46.222Z,1.90
2022-12-08T07:45:13.971Z,1.90
2022-12-08T07:47:41.377Z,1.90
2022-12-08T07:50:12.411Z,1.90
2022-12-08T07:52:40.365Z,1.90
2022-12-08T07:55:08.300Z,1.90
2022-12-08T07:57:35.805Z,1.90
2022-12-08T08:00:05.593Z,1.90
2022-12-08T08:02:39.329Z,2.00
2022-12-08T08:05:07.526Z,2.00
2022-12-08T08:07:35.419Z,2.00
2022-12-08T08:10:03.276Z,2.00
2022-12-08T08:12:32.594Z,2.00
2022-12-08T08:15:02.123Z,2.00
2022-12-08T08:17:30.362Z,2.10
2022-12-08T08:19:58.189Z,2.10
2022-12-08T08:22:27.127Z,2.10
2022-12-08T08:24:54.910Z,2.10
2022-12-08T08:27:23.114Z,2.10
2022-12-08T08:29:51.077Z,2.10
2022-12-08T08:32:19.074Z,2.20
2022-12-08T08:34:46.605Z,2.10
2022-12-08T08:37:14.147Z,2.20
2022-12-08T08:39:43.278Z,2.20
2022-12-08T08:42:10.826Z,2.20
2022-12-08T08:44:39.186Z,2.20
2022-12-08T08:47:07.065Z,2.30
2022-12-08T08:49:34.689Z,2.30
2022-12-08T08:52:03.103Z,2.30
2022-12-08T08:54:31.536Z,2.30
2022-12-08T08:57:00.758Z,2.40
2022-12-08T08:59:28.799Z,2.40
2022-12-08T09:01:56.311Z,2.30
2022-12-08T09:04:23.746Z,2.40
2022-12-08T09:06:51.201Z,2.50
2022-12-08T09:09:18.540Z,2.50
2022-12-08T09:11:45.792Z,2.40
2022-12-08T09:14:15.575Z,2.50
2022-12-08T09:16:43.146Z,2.50
2022-12-08T09:19:10.840Z,2.60
2022-12-08T09:21:40.291Z,2.60
2022-12-08T09:24:15.895Z,2.70
2022-12-08T09:26:45.443Z,2.70
2022-12-08T09:29:14.853Z,2.80
2022-12-08T09:31:42.602Z,2.80
2022-12-08T09:34:12.395Z,2.70
2022-12-08T09:36:40.424Z,2.80
2022-12-08T09:39:08.134Z,2.80
2022-12-08T09:41:50.316Z,2.90
2022-12-08T09:44:48.690Z,2.90
2022-12-08T09:47:33.791Z,2.80
2022-12-08T09:50:21.789Z,2.90
2022-12-08T09:53:04.446Z,3.00
2022-12-08T09:55:54.196Z,2.90
2022-12-08T09:58:36.909Z,2.90
2022-12-08T10:01:07.576Z,2.90
2022-12-08T10:03:35.038Z,3.10
2022-12-08T10:06:25.012Z,3.10
2022-12-08T10:09:05.405Z,3.00
2022-12-08T10:11:50.501Z,3.00
2022-12-08T10:14:23.505Z,3.00
2022-12-08T10:16:56.288Z,3.00
2022-12-08T10:19:27.159Z,3.10
2022-12-08T10:21:58.107Z,3.20
2022-12-08T10:24:43.447Z,3.20
2022-12-08T10:27:12.883Z,3.10
2022-12-08T10:29:41.121Z,3.10
2022-12-08T10:32:20.107Z,3.20
2022-12-08T10:35:09.317Z,3.30
2022-12-08T10:37:36.719Z,3.30
2022-12-08T10:40:22.079Z,3.40
2022-12-08T10:42:52.541Z,3.50
2022-12-08T10:45:25.520Z,3.70
2022-12-08T10:48:03.936Z,3.60
2022-12-08T10:50:31.497Z,3.80
2022-12-08T10:53:08.115Z,3.90
2022-12-08T10:55:44.931Z,4.10
2022-12-08T10:58:29.396Z,4.20
2022-12-08T11:01:01.854Z,4.40
2022-12-08T11:03:33.410Z,4.50
2022-12-08T11:06:11.111Z,4.50
2022-12-08T11:08:54.238Z,4.40
2022-12-08T11:11:27.696Z,4.60
2022-12-08T11:13:56.931Z,4.50
2022-12-08T11:16:24.556Z,4.40
2022-12-08T11:18:58.732Z,4.40
2022-12-08T11:21:37.258Z,4.80
2022-12-08T11:24:22.125Z,4.90
2022-12-08T11:26:54.560Z,5.10
2022-12-08T11:29:22.238Z,5.10
2022-12-08T11:32:02.179Z,5.00
2022-12-08T11:34:35.576Z,5.30
2022-12-08T11:37:06.484Z,5.00
2022-12-08T11:39:36.588Z,5.10
2022-12-08T11:42:05.498Z,5.00
2022-12-08T11:44:32.907Z,5.10
2022-12-08T11:47:15.217Z,5.10
2022-12-08T11:49:43.601Z,4.80
2022-12-08T11:52:33.967Z,4.70
2022-12-08T11:55:25.439Z,4.60
2022-12-08T11:57:55.064Z,4.60
2022-12-08T12:00:22.474Z,4.60
2022-12-08T12:02:59.787Z,4.50
2022-12-08T12:08:34.611Z,4.30
2022-12-08T12:11:51.788Z,4.00
2022-12-08T12:14:43.080Z,3.90
2022-12-08T12:17:23.629Z,3.90
2022-12-08T12:19:52.536Z,3.80
2022-12-08T12:22:22.949Z,3.80
2022-12-08T12:24:52.223Z,3.70
2022-12-08T12:27:29.245Z,3.80
2022-12-08T12:30:00.754Z,3.70
2022-12-08T12:32:43.475Z,3.80
2022-12-08T12:35:24.005Z,3.80
2022-12-08T12:38:29.143Z,3.70
2022-12-08T12:41:03.255Z,3.70
2022-12-08T12:43:34.601Z,3.60
2022-12-08T12:46:24.039Z,3.60
2022-12-08T12:48:52.846Z,3.60
2022-12-08T12:51:41.701Z,3.70
2022-12-08T12:54:29.882Z,3.60
2022-12-08T12:57:09.323Z,3.60
2022-12-08T12:59:44.177Z,3.70
2022-12-08T13:02:26.434Z,3.60
2022-12-08T13:05:10.013Z,3.70
2022-12-08T13:07:55.890Z,3.70
2022-12-08T13:10:40.326Z,3.60
2022-12-08T13:13:10.759Z,3.60
2022-12-08T13:16:26.321Z,3.60
2022-12-08T13:18:59.210Z,3.60
2022-12-08T13:21:36.759Z,3.60
2022-12-08T13:24:17.972Z,3.60
2022-12-08T13:26:51.316Z,3.60
2022-12-08T13:29:23.858Z,3.60
2022-12-08T13:31:56.599Z,3.60
2022-12-08T13:34:39.560Z,3.60
2022-12-08T13:37:13.542Z,3.70
2022-12-08T13:39:40.984Z,3.60
2022-12-08T13:42:20.487Z,3.60
2022-12-08T13:45:19.087Z,3.60
2022-12-08T13:47:54.359Z,3.60
2022-12-08T13:59:19.947Z,3.50
2022-12-08T14:01:49.853Z,3.50
2022-12-08T14:04:42.462Z,3.40
2022-12-08T14:07:12.304Z,3.40
2022-12-08T14:09:41.286Z,3.40
2022-12-08T14:12:26.995Z,3.40
2022-12-08T14:15:14.961Z,3.40
2022-12-08T14:17:52.567Z,3.30
2022-12-08T14:20:27.460Z,3.30
2022-12-08T14:22:55.280Z,3.30
2022-12-08T14:25:24.101Z,3.40
2022-12-08T14:27:59.313Z,3.30
2022-12-08T14:30:30.771Z,3.30
2022-12-08T14:33:00.595Z,3.30
2022-12-08T14:35:33.795Z,3.30
2022-12-08T14:38:14.860Z,3.30
2022-12-08T14:40:59.758Z,3.30
2022-12-08T14:43:29.571Z,3.30
2022-12-08T14:46:03.052Z,3.30
2022-12-08T14:48:36.520Z,3.30
2022-12-08T14:51:03.701Z,3.30
2022-12-08T14:53:52.860Z,3.30
2022-12-08T14:56:24.750Z,3.30
2022-12-08T14:59:17.596Z,3.30
2022-12-08T15:01:46.465Z,3.30
2022-12-08T15:04:13.955Z,3.20
2022-12-08T15:06:53.178Z,3.20
2022-12-08T15:09:34.476Z,3.20
2022-12-08T15:12:24.701Z,3.20
2022-12-08T15:15:22.446Z,3.20
2022-12-08T15:17:52.279Z,3.20
2022-12-08T15:20:45.764Z,3.20
2022-12-08T15:23:31.486Z,3.20
2022-12-08T15:25:59.853Z,3.20
2022-12-08T15:28:30.474Z,3.20
2022-12-08T15:30:59.046Z,3.20
2022-12-08T15:33:27.526Z,3.20
2022-12-08T15:35:54.860Z,3.20
2022-12-08T15:38:29.552Z,3.20
2022-12-08T15:41:01.175Z,3.10
2022-12-08T15:43:30.607Z,3.10
2022-12-08T15:46:00.109Z,3.10
2022-12-08T15:48:30.033Z,3.10
2022-12-08T15:50:57.626Z,3.10
2022-12-08T15:53:24.905Z,3.10
2022-12-08T15:58:56.520Z,3.10
2022-12-08T16:01:25.888Z,3.10
2022-12-08T16:09:39.217Z,3.10
2022-12-08T16:15:59.811Z,3.10
2022-12-08T16:18:28.591Z,3.10
2022-12-08T16:23:44.980Z,3.10
2022-12-08T16:29:06.325Z,3.10
2022-12-08T16:31:33.906Z,3.00
2022-12-08T16:34:01.474Z,3.00
2022-12-08T16:36:28.740Z,3.00
2022-12-08T16:38:56.056Z,3.00
2022-12-08T16:41:41.802Z,3.10
2022-12-08T16:44:09.216Z,3.00
2022-12-08T16:46:37.119Z,3.00
2022-12-08T16:49:04.918Z,3.00
2022-12-08T16:51:32.152Z,3.00
2022-12-08T16:53:59.457Z,3.10
2022-12-08T16:56:32.784Z,3.00
2022-12-08T16:59:01.690Z,3.00
2022-12-08T17:01:29.104Z,3.00
2022-12-08T17:04:22.953Z,3.00
2022-12-08T17:06:43.895Z,3.00
2022-12-08T17:09:11.211Z,3.00
2022-12-08T17:11:43.058Z,3.00
2022-12-08T17:14:13.075Z,3.00
2022-12-08T17:16:41.389Z,3.00
2022-12-08T17:19:09.187Z,2.90
2022-12-08T17:21:36.513Z,2.90
2022-12-08T17:24:04.566Z,2.90
2022-12-08T17:26:31.882Z,2.80
2022-12-08T17:29:01.240Z,2.80
2022-12-08T17:31:31.289Z,2.80
2022-12-08T17:34:01.344Z,2.90
2022-12-08T17:36:29.012Z,2.80
2022-12-08T17:38:57.220Z,2.90
2022-12-08T17:41:24.530Z,2.90
2022-12-08T17:43:52.171Z,2.90
2022-12-08T17:46:20.430Z,2.90
2022-12-08T17:48:47.800Z,2.90
2022-12-08T17:51:15.827Z,2.80
2022-12-08T17:53:43.078Z,2.80
2022-12-08T17:56:19.804Z,2.80
2022-12-08T17:58:52.890Z,2.80
2022-12-08T18:01:22.933Z,2.80
2022-12-08T18:03:50.365Z,2.80
2022-12-08T18:06:17.883Z,2.80
2022-12-08T18:08:45.556Z,2.80
2022-12-08T18:11:18.646Z,2.80
2022-12-08T18:13:47.105Z,2.80
2022-12-08T18:16:19.491Z,2.80
2022-12-08T18:18:47.647Z,2.80
2022-12-08T18:21:22.869Z,2.90
2022-12-08T18:23:50.904Z,2.80
2022-12-08T18:26:18.573Z,2.80
2022-12-08T18:28:45.970Z,2.80
2022-12-08T18:31:16.427Z,2.80
2022-12-08T18:33:45.609Z,2.80
2022-12-08T18:36:15.889Z,2.80
2022-12-08T18:38:43.913Z,2.80
2022-12-08T18:41:17.697Z,2.80
2022-12-08T18:43:45.334Z,2.80
2022-12-08T18:46:14.841Z,2.80
2022-12-08T18:48:44.989Z,2.90
2022-12-08T18:51:14.017Z,2.90
2022-12-08T18:53:42.053Z,2.90
2022-12-08T18:56:20.047Z,2.90
2022-12-08T18:58:47.222Z,2.80
2022-12-08T19:01:17.771Z,2.80
2022-12-08T19:04:04.683Z,2.80
2022-12-08T19:06:32.778Z,2.80
2022-12-08T19:09:00.087Z,2.80
2022-12-08T19:11:29.276Z,2.80
2022-12-08T19:13:56.813Z,2.90
2022-12-08T19:16:24.281Z,2.80
2022-12-08T19:18:51.751Z,2.80
2022-12-08T19:21:19.869Z,2.80
2022-12-08T19:23:47.710Z,2.80
2022-12-08T19:26:15.029Z,2.80
2022-12-08T19:28:42.365Z,2.80
2022-12-08T19:31:10.769Z,2.80
2022-12-08T19:33:39.162Z,2.80
2022-12-08T19:36:14.027Z,2.80
2022-12-08T19:39:00.174Z,2.80
2022-12-08T19:41:46.650Z,2.90
2022-12-08T19:44:32.989Z,2.90
2022-12-08T19:47:03.909Z,2.90
2022-12-08T19:49:32.085Z,2.90
2022-12-08T19:52:00.132Z,2.90
2022-12-08T19:54:27.840Z,2.90
2022-12-08T19:56:55.241Z,2.90
2022-12-08T19:59:26.409Z,3.00
2022-12-08T20:01:58.903Z,3.00
2022-12-08T20:04:28.548Z,2.80
2022-12-08T20:06:56.844Z,2.70
2022-12-08T20:09:24.601Z,2.60
2022-12-08T20:11:54.803Z,2.60
2022-12-08T20:14:23.375Z,2.60
2022-12-08T20:16:51.407Z,2.50
2022-12-08T20:19:18.806Z,2.50
2022-12-08T20:21:46.134Z,2.50
2022-12-08T20:24:13.501Z,2.50
2022-12-08T20:26:40.880Z,2.50
2022-12-08T20:29:08.418Z,2.50
2022-12-08T20:31:35.846Z,2.50
2022-12-08T20:34:03.674Z,2.50
2022-12-08T20:36:31.599Z,2.50
2022-12-08T20:38:58.941Z,2.50
2022-12-08T20:41:26.289Z,2.40
2022-12-08T20:43:53.990Z,2.40
2022-12-08T20:46:24.357Z,2.50
2022-12-08T20:48:51.888Z,2.40
2022-12-08T20:51:20.057Z,2.40
2022-12-08T20:53:50.988Z,2.40
2022-12-08T20:56:21.058Z,2.40
2022-12-08T20:58:49.524Z,2.30
2022-12-08T21:01:22.526Z,2.40
2022-12-08T21:03:51.112Z,2.40
2022-12-08T21:06:27.039Z,2.40
2022-12-08T21:08:54.985Z,2.30
2022-12-08T21:11:23.342Z,2.40
2022-12-08T21:13:50.632Z,2.40
2022-12-08T21:16:18.144Z,2.40
2022-12-08T21:18:45.818Z,2.30
2022-12-08T21:21:15.147Z,2.30
2022-12-08T21:23:43.488Z,2.30
2022-12-08T21:26:13.100Z,2.30
2022-12-08T21:28:41.004Z,2.30
2022-12-08T21:31:13.562Z,2.30
2022-12-08T21:33:41.235Z,2.30
2022-12-08T21:36:12.716Z,2.30
2022-12-08T21:38:40.940Z,2.40
2022-12-08T21:41:13.569Z,2.40
2022-12-08T21:43:41.455Z,2.40
2022-12-08T21:46:16.830Z,2.40
2022-12-08T21:48:44.589Z,2.40
2022-12-08T21:51:11.994Z,2.40
2022-12-08T21:53:39.312Z,2.40
2022-12-08T21:56:10.272Z,2.40
2022-12-08T21:58:39.832Z,2.30
2022-12-08T22:01:08.463Z,2.30
2022-12-08T22:03:37.286Z,2.20
2022-12-08T22:06:06.738Z,2.20
2022-12-08T22:08:34.905Z,2.10
2022-12-08T22:11:02.834Z,2.10
2022-12-08T22:13:30.339Z,2.00
2022-12-08T22:15:59.555Z,1.90
2022-12-08T22:18:27.592Z,1.90
2022-12-08T22:20:55.045Z,1.80
2022-12-08T22:23:22.847Z,1.70
2022-12-08T22:26:01.324Z,1.70
2022-12-08T22:28:32.294Z,1.60
2022-12-08T22:31:00.193Z,1.50
2022-12-08T22:33:30.796Z,1.40
2022-12-08T22:36:04.794Z,1.40
2022-12-08T22:38:35.821Z,1.30
2022-12-08T22:41:05.599Z,1.20
2022-12-08T22:43:36.198Z,1.20
2022-12-08T22:46:13.026Z,1.10
2022-12-08T22:48:40.680Z,1.10
2022-12-08T22:51:08.679Z,1.00
2022-12-08T22:53:36.527Z,1.00
2022-12-08T22:56:09.783Z,1.00
2022-12-08T22:58:38.766Z,0.90
2022-12-08T23:01:06.830Z,0.90
2022-12-08T23:03:34.955Z,0.80
2022-12-08T23:06:02.879Z,0.80
2022-12-08T23:08:30.357Z,0.70
2022-12-08T23:10:58.939Z,0.60
2022-12-08T23:13:26.966Z,0.60
2022-12-08T23:15:54.405Z,0.50
2022-12-08T23:18:21.668Z,0.50
2022-12-08T23:20:48.975Z,0.40
2022-12-08T23:23:16.534Z,0.30
2022-12-08T23:25:44.021Z,0.30
2022-12-08T23:28:11.762Z,0.20
2022-12-08T23:30:42.261Z,0.20
2022-12-08T23:33:09.787Z,0.20
2022-12-08T23:35:37.080Z,0.10
2022-12-08T23:38:05.068Z,0.10
2022-12-08T23:40:32.397Z,0.00
2022-12-08T23:42:59.714Z,0.00
2022-12-08T23:45:27.073Z,0.00
2022-12-08T23:47:54.607Z,0.00
2022-12-08T23:50:21.992Z,-0.10
2022-12-08T23:52:49.517Z,-0.10
2022-12-08T23:55:16.761Z,-0.20
2022-12-08T23:57:44.105Z,-0.20
